Time;durP1;ratioP1;P1;durP2;ratioP2;P2;SDS_P1;SDS_P2;PMS_P1;PMS_P2;Temp;Humidity;BMP_temperature;BMP_pressure;BME280_temperature;BME280_humidity;BME280_pressure;Samples;Min_cycle;Max_cycle;Signal;HPM_P1;HPM_P2
2024/03/18 00:00:27;;;;;;;2.70;2.00;;;8.60;99.90;;;;;;493890;241;27942;-72
2024/03/18 00:02:28;;;;;;;3.03;2.23;;;8.60;99.90;;;;;;493737;241;27746;-71
2024/03/18 00:04:29;;;;;;;2.83;2.40;;;8.70;99.90;;;;;;493950;241;27974;-72
2024/03/18 00:06:30;;;;;;;2.10;2.00;;;8.60;99.90;;;;;;493918;241;27868;-73
2024/03/18 00:08:32;;;;;;;2.47;2.27;;;8.60;99.90;;;;;;493889;241;27584;-71
2024/03/18 00:10:33;;;;;;;3.00;2.50;;;8.60;99.90;;;;;;493917;241;28294;-72
2024/03/18 00:12:34;;;;;;;3.13;2.30;;;8.70;99.90;;;;;;493936;241;28533;-72
2024/03/18 00:14:36;;;;;;;2.40;2.20;;;8.60;99.90;;;;;;493972;241;28602;-72
2024/03/18 00:16:37;;;;;;;2.00;1.90;;;8.60;99.90;;;;;;493886;241;28463;-72
2024/03/18 00:18:39;;;;;;;1.80;1.70;;;8.60;99.90;;;;;;493930;241;28120;-73
2024/03/18 00:20:39;;;;;;;3.30;2.13;;;8.60;99.90;;;;;;493874;241;28092;-73
2024/03/18 00:22:40;;;;;;;4.73;2.43;;;8.60;99.90;;;;;;494016;241;27977;-73
2024/03/18 00:24:42;;;;;;;4.30;2.47;;;8.60;99.90;;;;;;493955;241;28005;-72
2024/03/18 00:26:43;;;;;;;3.00;2.57;;;8.60;99.90;;;;;;493945;241;27983;-73
2024/03/18 00:28:44;;;;;;;2.40;2.20;;;8.60;99.90;;;;;;493912;241;28026;-72
2024/03/18 00:30:45;;;;;;;2.20;2.00;;;8.60;99.90;;;;;;493940;237;27868;-73
2024/03/18 00:32:47;;;;;;;3.50;2.60;;;8.60;99.90;;;;;;494003;241;28014;-74
2024/03/18 00:34:48;;;;;;;4.90;2.50;;;8.60;99.90;;;;;;493946;241;27481;-72
2024/03/18 00:36:49;;;;;;;2.87;2.20;;;8.60;99.90;;;;;;493946;241;28015;-73
2024/03/18 00:38:50;;;;;;;4.67;2.40;;;8.60;99.90;;;;;;493920;241;28012;-73
2024/03/18 00:42:59;;;;;;;2.50;2.30;;;8.50;99.90;;;;;;487936;237;27576;-72
2024/03/18 00:45:00;;;;;;;5.10;2.57;;;8.60;99.90;;;;;;493950;241;28012;-72
2024/03/18 00:47:02;;;;;;;2.87;2.33;;;8.50;99.90;;;;;;493942;241;28332;-71
2024/03/18 00:49:04;;;;;;;3.57;2.57;;;8.60;99.90;;;;;;493897;241;29351;-72
2024/03/18 00:51:04;;;;;;;2.33;2.10;;;8.50;99.90;;;;;;493937;241;28389;-74
2024/03/18 00:53:07;;;;;;;2.17;2.07;;;8.50;99.90;;;;;;493981;241;28043;-74
2024/03/18 00:55:10;;;;;;;3.00;2.47;;;8.50;99.90;;;;;;493823;241;28470;-73
2024/03/18 00:57:08;;;;;;;3.03;2.30;;;8.50;99.90;;;;;;493649;241;28001;-75
2024/03/18 00:59:09;;;;;;;2.47;2.27;;;8.40;99.90;;;;;;493969;237;27771;-73
2024/03/18 01:01:11;;;;;;;4.03;2.20;;;8.50;99.90;;;;;;494004;241;27682;-73
2024/03/18 01:03:12;;;;;;;3.60;1.90;;;8.40;99.90;;;;;;493941;241;28190;-74
2024/03/18 01:05:14;;;;;;;3.90;2.67;;;8.40;99.90;;;;;;493872;241;28039;-73
2024/03/18 01:07:14;;;;;;;3.00;2.37;;;8.40;99.90;;;;;;493882;241;27814;-74
2024/03/18 01:09:16;;;;;;;6.20;2.90;;;8.40;99.90;;;;;;493993;241;28266;-74
2024/03/18 01:11:16;;;;;;;3.20;2.60;;;8.40;99.90;;;;;;493996;241;28132;-73
2024/03/18 01:13:18;;;;;;;4.07;2.20;;;8.30;99.90;;;;;;494002;241;27703;-74
2024/03/18 01:15:19;;;;;;;7.40;3.00;;;8.30;99.90;;;;;;493950;241;28021;-73
2024/03/18 01:17:20;;;;;;;8.00;4.27;;;8.30;99.90;;;;;;493999;241;27993;-73
2024/03/18 01:19:21;;;;;;;3.50;3.20;;;8.30;99.90;;;;;;493955;241;28150;-74
2024/03/18 01:21:24;;;;;;;6.90;3.10;;;8.30;99.90;;;;;;493976;241;28137;-73
2024/03/18 01:23:24;;;;;;;4.00;3.03;;;8.40;99.90;;;;;;493889;241;27650;-74
2024/03/18 01:25:25;;;;;;;3.30;2.77;;;8.30;99.90;;;;;;493886;241;29006;-74
2024/03/18 01:27:26;;;;;;;3.40;3.03;;;8.30;99.90;;;;;;493983;241;28294;-74
2024/03/18 01:29:28;;;;;;;3.30;3.10;;;8.40;99.90;;;;;;493945;241;28295;-73
2024/03/18 01:31:29;;;;;;;6.00;3.50;;;8.40;99.90;;;;;;493948;241;28371;-73
2024/03/18 01:33:31;;;;;;;5.93;3.60;;;8.40;99.90;;;;;;493931;241;28437;-73
2024/03/18 01:35:33;;;;;;;7.50;3.63;;;8.40;99.90;;;;;;493952;241;28006;-73
2024/03/18 01:37:33;;;;;;;6.60;3.67;;;8.40;99.90;;;;;;493911;241;27821;-73
2024/03/18 01:39:34;;;;;;;8.30;5.70;;;8.40;99.90;;;;;;493808;241;27741;-74
2024/03/18 01:41:35;;;;;;;11.13;6.73;;;8.40;99.90;;;;;;493966;241;28137;-73
2024/03/18 01:43:37;;;;;;;14.17;7.47;;;8.50;99.90;;;;;;493938;241;28007;-73
2024/03/18 01:45:38;;;;;;;10.10;6.30;;;8.50;99.90;;;;;;494010;241;27812;-75
2024/03/18 01:47:39;;;;;;;9.73;5.07;;;8.50;99.90;;;;;;493976;241;27928;-74
2024/03/18 01:49:40;;;;;;;12.27;4.83;;;8.60;99.90;;;;;;493803;241;27544;-74
2024/03/18 01:51:41;;;;;;;15.10;4.87;;;8.60;99.90;;;;;;493962;241;28136;-73
2024/03/18 01:53:43;;;;;;;6.33;4.23;;;8.60;99.90;;;;;;493840;241;27976;-73
2024/03/18 01:55:44;;;;;;;8.13;3.67;;;8.60;99.90;;;;;;494024;241;27968;-74
2024/03/18 01:57:47;;;;;;;5.10;2.93;;;8.60;99.90;;;;;;493979;241;28588;-73
2024/03/18 01:59:46;;;;;;;4.03;2.80;;;8.60;99.90;;;;;;493853;241;28259;-72
2024/03/18 02:01:48;;;;;;;4.73;2.90;;;8.70;99.90;;;;;;493928;241;28389;-73
2024/03/18 02:03:49;;;;;;;4.00;3.20;;;8.70;99.90;;;;;;493977;237;28430;-73
2024/03/18 02:05:50;;;;;;;5.03;3.23;;;8.70;99.90;;;;;;493947;241;28527;-74
2024/03/18 02:07:51;;;;;;;4.97;2.53;;;8.70;99.90;;;;;;493964;237;27929;-74
2024/03/18 02:09:53;;;;;;;2.60;2.40;;;8.70;99.90;;;;;;493895;241;27815;-73
2024/03/18 02:11:54;;;;;;;3.47;2.23;;;8.70;99.90;;;;;;493990;241;27922;-74
2024/03/18 02:13:55;;;;;;;2.80;2.33;;;8.70;99.90;;;;;;493981;241;28208;-73
2024/03/18 02:15:56;;;;;;;9.30;3.13;;;8.70;99.90;;;;;;493986;241;28002;-75
2024/03/18 02:17:58;;;;;;;5.07;2.80;;;8.70;99.90;;;;;;493891;241;27933;-73
2024/03/18 02:19:59;;;;;;;6.03;2.70;;;8.70;99.90;;;;;;493940;241;27833;-74
2024/03/18 02:22:00;;;;;;;4.70;2.77;;;8.70;99.90;;;;;;493991;241;27959;-74
2024/03/18 02:24:06;;;;;;;4.30;2.50;;;8.70;99.90;;;;;;493967;241;28078;-73
2024/03/18 02:26:03;;;;;;;5.33;2.73;;;8.70;99.90;;;;;;493589;241;28118;-74
2024/03/18 02:28:04;;;;;;;3.33;2.53;;;8.70;99.90;;;;;;493940;241;27963;-73
2024/03/18 02:30:05;;;;;;;2.20;2.10;;;8.70;99.90;;;;;;493988;241;27624;-73
2024/03/18 02:32:06;;;;;;;6.00;3.07;;;8.80;99.90;;;;;;493994;241;27885;-75
2024/03/18 02:34:08;;;;;;;3.80;2.70;;;8.70;99.90;;;;;;493995;241;27916;-73
2024/03/18 02:36:09;;;;;;;4.63;2.53;;;8.70;99.90;;;;;;493960;237;28498;-73
2024/03/18 02:38:10;;;;;;;5.30;3.03;;;8.60;99.90;;;;;;493879;241;29162;-73
2024/03/18 02:40:12;;;;;;;3.20;2.70;;;8.60;99.90;;;;;;494002;241;28367;-73
2024/03/18 02:42:13;;;;;;;3.60;2.87;;;8.60;99.90;;;;;;493928;241;28399;-74
2024/03/18 02:44:14;;;;;;;3.43;2.47;;;8.70;99.90;;;;;;493977;241;28510;-73
2024/03/18 02:46:15;;;;;;;3.70;2.70;;;8.70;99.90;;;;;;493929;241;28487;-73
2024/03/18 02:48:16;;;;;;;3.73;2.53;;;8.70;99.90;;;;;;493939;241;27983;-73
2024/03/18 02:50:18;;;;;;;3.80;2.70;;;8.70;99.90;;;;;;494021;241;27910;-74
2024/03/18 02:52:19;;;;;;;3.33;3.03;;;8.70;99.90;;;;;;493967;241;28078;-74
2024/03/18 02:54:20;;;;;;;6.30;3.10;;;8.70;99.90;;;;;;493972;241;28080;-75
2024/03/18 02:56:21;;;;;;;3.70;2.53;;;8.60;99.90;;;;;;493942;241;27855;-74
2024/03/18 02:58:23;;;;;;;6.00;3.20;;;8.70;99.90;;;;;;493967;241;28463;-74
2024/03/18 03:00:24;;;;;;;5.10;3.03;;;8.80;99.90;;;;;;494009;238;28023;-73
2024/03/18 03:02:25;;;;;;;7.13;2.83;;;8.80;99.90;;;;;;493787;241;28068;-74
2024/03/18 03:04:26;;;;;;;2.57;2.30;;;8.80;99.90;;;;;;493941;237;27975;-74
2024/03/18 03:06:28;;;;;;;5.40;3.33;;;8.80;99.90;;;;;;493941;241;27968;-74
2024/03/18 03:08:29;;;;;;;4.20;2.77;;;8.90;99.90;;;;;;493950;241;27994;-74
2024/03/18 03:10:30;;;;;;;5.00;2.70;;;8.80;99.90;;;;;;493998;241;27589;-73
2024/03/18 03:12:31;;;;;;;4.63;3.03;;;8.80;99.90;;;;;;493977;241;28587;-73
2024/03/18 03:14:33;;;;;;;3.00;2.47;;;8.80;99.90;;;;;;493919;241;29186;-73
2024/03/18 03:16:34;;;;;;;2.87;2.67;;;8.80;99.90;;;;;;493959;241;28434;-74
2024/03/18 03:18:35;;;;;;;3.77;2.97;;;8.80;99.90;;;;;;493922;241;28485;-74
2024/03/18 03:20:36;;;;;;;6.60;3.23;;;8.90;99.90;;;;;;493984;241;28501;-73
2024/03/18 03:22:40;;;;;;;2.60;2.40;;;8.80;99.90;;;;;;493869;241;27762;-73
2024/03/18 03:24:39;;;;;;;2.90;2.60;;;8.80;99.90;;;;;;493756;237;28106;-73
2024/03/18 03:26:40;;;;;;;4.73;2.50;;;8.80;99.90;;;;;;493973;241;28036;-73
2024/03/18 03:28:42;;;;;;;2.80;2.60;;;8.80;99.90;;;;;;493909;241;27729;-74
2024/03/18 03:30:43;;;;;;;3.20;2.40;;;8.80;99.90;;;;;;493907;241;27976;-73
2024/03/18 03:32:44;;;;;;;6.13;2.50;;;8.80;99.90;;;;;;493888;237;28143;-74
2024/03/18 03:34:45;;;;;;;2.90;2.70;;;8.80;99.90;;;;;;494022;241;28359;-74
2024/03/18 03:36:46;;;;;;;3.23;2.00;;;8.80;99.90;;;;;;493979;241;28076;-73
2024/03/18 03:38:47;;;;;;;6.10;2.33;;;8.80;99.90;;;;;;493888;241;28078;-73
2024/03/18 03:40:49;;;;;;;2.40;2.20;;;8.80;99.90;;;;;;493918;241;27610;-73
2024/03/18 03:42:50;;;;;;;6.20;2.53;;;8.80;99.90;;;;;;493950;241;27982;-73
2024/03/18 03:44:51;;;;;;;4.10;2.60;;;8.80;99.90;;;;;;493962;241;27877;-74
2024/03/18 03:46:52;;;;;;;4.30;2.43;;;8.80;99.90;;;;;;493949;241;27937;-73
2024/03/18 03:48:54;;;;;;;2.77;2.20;;;8.80;99.90;;;;;;493921;241;27967;-74
2024/03/18 03:50:55;;;;;;;2.93;2.43;;;8.90;99.90;;;;;;493939;241;29502;-73
2024/03/18 03:52:56;;;;;;;2.47;2.27;;;8.80;99.90;;;;;;493985;241;28402;-74
2024/03/18 03:54:57;;;;;;;6.30;3.10;;;8.80;99.90;;;;;;493955;241;28546;-74
2024/03/18 03:56:59;;;;;;;5.07;3.00;;;8.80;99.90;;;;;;493944;241;28419;-74
2024/03/18 03:59:00;;;;;;;4.73;3.10;;;8.80;99.90;;;;;;493922;241;28683;-74
2024/03/18 04:01:01;;;;;;;8.03;3.20;;;8.90;99.90;;;;;;493965;241;28037;-73
2024/03/18 04:03:02;;;;;;;6.23;3.20;;;8.80;99.90;;;;;;493989;241;28018;-74
2024/03/18 04:05:04;;;;;;;9.23;2.90;;;8.80;99.90;;;;;;493962;241;28069;-74
2024/03/18 04:07:05;;;;;;;4.47;3.40;;;8.90;99.90;;;;;;493942;241;27821;-72
2024/03/18 04:09:06;;;;;;;6.20;3.33;;;8.90;99.90;;;;;;493874;241;28010;-73
2024/03/18 04:11:07;;;;;;;5.70;3.50;;;8.90;99.90;;;;;;493993;241;27969;-74
2024/03/18 04:13:09;;;;;;;3.40;3.10;;;8.90;99.90;;;;;;493973;241;28143;-73
2024/03/18 04:15:11;;;;;;;4.83;2.90;;;8.90;99.90;;;;;;493823;241;27983;-74
2024/03/18 04:17:12;;;;;;;4.30;3.37;;;8.90;99.90;;;;;;493913;241;27589;-73
2024/03/18 04:19:12;;;;;;;6.57;3.10;;;8.90;99.90;;;;;;493926;241;27625;-73
2024/03/18 04:21:14;;;;;;;6.30;2.97;;;8.90;99.90;;;;;;494013;241;28105;-75
2024/03/18 04:23:15;;;;;;;3.47;2.60;;;8.90;99.90;;;;;;493979;237;27940;-73
2024/03/18 04:25:17;;;;;;;9.50;3.03;;;9.00;99.90;;;;;;493942;237;28257;-74
2024/03/18 04:27:17;;;;;;;6.00;2.67;;;9.00;99.90;;;;;;493877;241;27974;-73
2024/03/18 04:29:19;;;;;;;3.53;2.83;;;9.00;99.90;;;;;;493755;237;28424;-73
2024/03/18 04:31:20;;;;;;;2.93;2.37;;;8.90;99.90;;;;;;493971;241;27958;-74
2024/03/18 04:33:21;;;;;;;3.93;2.90;;;8.90;99.90;;;;;;493928;241;28463;-72
2024/03/18 04:35:22;;;;;;;2.53;2.33;;;8.90;99.90;;;;;;493940;241;28477;-73
2024/03/18 04:37:24;;;;;;;3.87;2.63;;;8.90;99.90;;;;;;493950;241;29249;-74
2024/03/18 04:39:26;;;;;;;3.70;2.50;;;8.80;99.90;;;;;;493961;241;28281;-74
2024/03/18 04:41:26;;;;;;;5.00;2.70;;;8.80;99.90;;;;;;493884;241;27729;-74
2024/03/18 04:43:27;;;;;;;4.20;2.70;;;8.80;99.90;;;;;;493964;241;27736;-73
2024/03/18 04:45:29;;;;;;;3.00;2.60;;;8.80;99.90;;;;;;493943;241;27644;-73
2024/03/18 04:47:30;;;;;;;5.33;2.73;;;8.70;99.90;;;;;;493991;241;28162;-74
2024/03/18 04:49:31;;;;;;;5.83;3.17;;;8.80;99.90;;;;;;493937;241;27665;-74
2024/03/18 04:51:32;;;;;;;4.47;3.00;;;8.70;99.90;;;;;;493962;241;27593;-74
2024/03/18 04:53:34;;;;;;;4.83;2.40;;;8.70;99.90;;;;;;493921;241;27946;-73
2024/03/18 04:55:35;;;;;;;5.70;2.90;;;8.60;99.90;;;;;;493937;237;28017;-73
2024/03/18 04:57:36;;;;;;;3.30;2.33;;;8.60;99.90;;;;;;493985;241;27963;-74
2024/03/18 04:59:39;;;;;;;4.67;2.10;;;8.60;99.90;;;;;;493926;241;28493;-73
2024/03/18 05:01:39;;;;;;;3.60;2.53;;;8.60;99.90;;;;;;493888;241;28709;-74
2024/03/18 05:03:40;;;;;;;3.00;2.43;;;8.60;99.90;;;;;;493944;241;28035;-73
2024/03/18 05:05:41;;;;;;;8.47;3.30;;;8.60;99.90;;;;;;493985;241;28093;-73
2024/03/18 05:07:42;;;;;;;4.90;2.63;;;8.60;99.90;;;;;;493953;241;28124;-74
2024/03/18 05:09:44;;;;;;;4.73;2.70;;;8.60;99.90;;;;;;493916;241;27911;-73
2024/03/18 05:11:45;;;;;;;3.20;2.80;;;8.60;99.90;;;;;;493963;241;28001;-73
2024/03/18 05:13:46;;;;;;;3.70;2.90;;;8.50;99.90;;;;;;493767;241;27968;-73
2024/03/18 05:15:48;;;;;;;2.87;2.63;;;8.50;99.90;;;;;;493978;241;27851;-73
2024/03/18 05:17:49;;;;;;;3.50;2.93;;;8.50;99.90;;;;;;493953;241;28006;-74
2024/03/18 05:19:51;;;;;;;3.17;2.83;;;8.50;99.90;;;;;;493913;241;27926;-73
2024/03/18 05:21:51;;;;;;;2.53;2.33;;;8.50;99.90;;;;;;493872;241;27990;-73
2024/03/18 05:23:52;;;;;;;4.10;2.73;;;8.50;99.90;;;;;;493980;241;28350;-75
2024/03/18 05:25:55;;;;;;;2.83;2.50;;;8.50;99.90;;;;;;493979;241;27942;-73
2024/03/18 05:27:55;;;;;;;5.70;3.07;;;8.50;99.90;;;;;;493841;241;27749;-76
2024/03/18 05:29:56;;;;;;;2.70;2.20;;;8.50;99.90;;;;;;493904;241;28015;-73
2024/03/18 05:31:57;;;;;;;4.30;2.73;;;8.50;99.90;;;;;;493941;237;27846;-74
2024/03/18 05:34:01;;;;;;;5.63;2.70;;;8.50;99.90;;;;;;493960;241;28416;-75
2024/03/18 05:36:00;;;;;;;4.57;2.83;;;8.50;99.90;;;;;;493808;241;28398;-73
2024/03/18 05:38:01;;;;;;;3.20;2.50;;;8.50;99.90;;;;;;493900;241;28540;-72
2024/03/18 05:40:04;;;;;;;2.57;2.37;;;8.60;99.90;;;;;;493934;237;28265;-73
2024/03/18 05:42:04;;;;;;;3.37;2.97;;;8.50;99.90;;;;;;493882;241;28041;-74
2024/03/18 05:44:05;;;;;;;3.10;2.80;;;8.60;99.90;;;;;;493980;241;28531;-74
2024/03/18 05:46:07;;;;;;;4.17;2.60;;;8.60;99.90;;;;;;493981;241;28185;-73
2024/03/18 05:48:07;;;;;;;6.03;3.10;;;8.70;99.90;;;;;;493916;241;27525;-73
2024/03/18 05:50:09;;;;;;;8.10;3.40;;;8.70;99.90;;;;;;493954;241;28070;-73
2024/03/18 05:52:10;;;;;;;4.73;3.93;;;8.70;99.90;;;;;;493988;241;27568;-74
2024/03/18 05:54:11;;;;;;;6.00;4.50;;;8.70;99.90;;;;;;493971;241;27690;-73
2024/03/18 05:56:13;;;;;;;9.50;4.80;;;8.70;99.90;;;;;;493963;238;27933;-73
2024/03/18 05:58:14;;;;;;;3.87;3.50;;;8.70;99.90;;;;;;493860;241;27975;-74
2024/03/18 06:00:15;;;;;;;5.60;3.90;;;8.70;99.90;;;;;;493990;241;28100;-73
2024/03/18 06:02:18;;;;;;;5.53;3.90;;;8.70;99.90;;;;;;493990;241;27962;-73
2024/03/18 06:04:17;;;;;;;5.50;4.20;;;8.70;99.90;;;;;;493807;241;27978;-74
2024/03/18 06:06:19;;;;;;;4.73;3.97;;;8.70;99.90;;;;;;493963;241;27586;-73
2024/03/18 06:08:20;;;;;;;4.20;3.80;;;8.80;99.90;;;;;;493860;241;28091;-73
2024/03/18 06:10:21;;;;;;;4.60;4.03;;;8.80;99.90;;;;;;494017;241;28027;-74
2024/03/18 06:12:27;;;;;;;4.20;3.67;;;8.80;99.90;;;;;;493954;241;28525;-73
2024/03/18 06:14:24;;;;;;;6.47;3.77;;;8.90;99.90;;;;;;493579;241;28370;-73
2024/03/18 06:16:25;;;;;;;7.20;3.00;;;8.80;99.90;;;;;;493947;241;28418;-73
2024/03/18 06:18:26;;;;;;;5.63;3.20;;;8.90;99.90;;;;;;493930;241;28029;-73
2024/03/18 06:20:27;;;;;;;7.60;3.47;;;8.80;99.90;;;;;;493957;241;27717;-74
2024/03/18 06:22:36;;;;;;;6.00;3.97;;;8.90;99.90;;;;;;493956;241;28049;-73
2024/03/18 06:25:54;;;;;;;8.30;4.03;;;8.80;99.90;;;;;;493316;241;27977;-74
2024/03/18 06:26:31;;;;;;;5.87;4.13;;;8.80;99.90;;;;;;492146;241;28096;-73
2024/03/18 06:28:34;;;;;;;5.60;3.83;;;8.80;99.90;;;;;;493979;241;27964;-73
2024/03/18 06:30:34;;;;;;;5.87;3.10;;;8.80;99.90;;;;;;493953;241;27977;-74
2024/03/18 06:32:35;;;;;;;5.00;3.60;;;8.90;99.90;;;;;;493991;241;27953;-74
2024/03/18 06:34:36;;;;;;;6.13;3.57;;;8.90;99.90;;;;;;493957;241;27969;-73
2024/03/18 06:36:37;;;;;;;4.13;3.40;;;8.80;99.90;;;;;;494003;241;28015;-74
2024/03/18 06:38:39;;;;;;;7.47;3.40;;;8.90;99.90;;;;;;493977;241;27829;-73
2024/03/18 06:40:40;;;;;;;6.23;4.00;;;8.90;99.90;;;;;;494012;241;28083;-75
2024/03/18 06:42:41;;;;;;;4.17;3.43;;;8.90;99.90;;;;;;493989;237;27663;-73
2024/03/18 06:44:44;;;;;;;6.00;3.40;;;8.90;99.90;;;;;;493980;241;28174;-73
2024/03/18 06:46:44;;;;;;;5.37;3.30;;;8.90;99.90;;;;;;493931;241;28569;-74
2024/03/18 06:48:45;;;;;;;3.60;3.30;;;8.90;99.90;;;;;;493971;241;27713;-73
2024/03/18 06:50:46;;;;;;;3.13;2.83;;;8.90;99.90;;;;;;494002;237;27862;-74
2024/03/18 06:52:47;;;;;;;7.03;3.40;;;8.90;99.90;;;;;;493994;241;27859;-73
2024/03/18 06:54:49;;;;;;;6.10;3.63;;;8.90;99.90;;;;;;494008;241;27948;-74
2024/03/18 06:56:50;;;;;;;3.43;3.13;;;8.90;99.90;;;;;;494023;241;28085;-73
2024/03/18 06:58:51;;;;;;;3.37;3.07;;;8.90;99.90;;;;;;493966;241;27927;-73
2024/03/18 07:00:54;;;;;;;5.40;2.90;;;9.00;99.90;;;;;;494009;241;27983;-73
2024/03/18 07:02:54;;;;;;;5.50;3.87;;;9.10;99.90;;;;;;493899;238;28594;-73
2024/03/18 07:04:55;;;;;;;4.53;3.70;;;9.10;99.90;;;;;;493992;241;28426;-73
2024/03/18 07:06:56;;;;;;;3.30;3.00;;;9.20;99.90;;;;;;493984;241;28476;-73
2024/03/18 07:08:57;;;;;;;8.23;3.73;;;9.20;99.90;;;;;;493878;241;28808;-74
2024/03/18 07:10:59;;;;;;;4.20;3.57;;;9.20;99.90;;;;;;493942;241;28474;-73
2024/03/18 07:13:00;;;;;;;3.20;2.90;;;9.40;99.90;;;;;;494039;241;27966;-75
2024/03/18 07:15:01;;;;;;;3.67;3.27;;;9.50;99.90;;;;;;493976;241;27829;-73
2024/03/18 07:17:03;;;;;;;8.90;3.07;;;9.50;99.90;;;;;;493987;241;27996;-74
2024/03/18 07:19:04;;;;;;;9.93;3.60;;;9.50;99.90;;;;;;493930;241;27894;-72
2024/03/18 07:21:05;;;;;;;3.53;2.90;;;9.50;99.90;;;;;;493995;241;28023;-74
2024/03/18 07:23:06;;;;;;;4.67;3.03;;;9.50;99.90;;;;;;493889;241;27894;-75
2024/03/18 07:25:16;;;;;;;3.63;2.87;;;9.50;99.90;;;;;;493987;241;27807;-73
2024/03/18 07:27:12;;;;;;;5.40;3.40;;;9.50;99.90;;;;;;493525;241;27626;-73
2024/03/18 07:29:15;;;;;;;4.73;3.57;;;9.50;99.90;;;;;;493949;241;27721;-74
2024/03/18 07:31:14;;;;;;;3.47;3.17;;;9.50;99.90;;;;;;493929;241;27996;-75
2024/03/18 07:33:16;;;;;;;5.77;3.57;;;9.50;99.90;;;;;;493993;241;27799;-74
2024/03/18 07:35:17;;;;;;;6.70;3.77;;;9.50;99.90;;;;;;493985;241;28107;-74
2024/03/18 07:37:18;;;;;;;8.40;3.30;;;9.50;99.90;;;;;;493950;241;27864;-74
2024/03/18 07:39:20;;;;;;;5.60;3.47;;;9.60;99.90;;;;;;493960;241;27826;-74
2024/03/18 07:41:22;;;;;;;3.80;3.40;;;9.70;99.90;;;;;;493949;241;27983;-75
2024/03/18 07:43:22;;;;;;;5.30;3.97;;;9.80;99.90;;;;;;493838;237;27825;-73
2024/03/18 07:45:23;;;;;;;12.73;4.50;;;9.80;99.90;;;;;;493922;241;27630;-74
2024/03/18 07:47:24;;;;;;;6.43;3.20;;;9.80;99.90;;;;;;493940;241;28100;-75
2024/03/18 07:49:26;;;;;;;7.30;3.47;;;9.90;99.90;;;;;;493936;241;28505;-73
2024/03/18 07:51:27;;;;;;;3.60;2.77;;;9.90;99.90;;;;;;493982;241;28577;-74
2024/03/18 07:53:28;;;;;;;5.13;2.70;;;9.90;99.90;;;;;;493961;237;28299;-74
2024/03/18 07:55:29;;;;;;;4.43;3.00;;;10.00;99.90;;;;;;493893;237;28428;-74
2024/03/18 07:57:31;;;;;;;3.87;3.10;;;10.00;99.90;;;;;;493973;241;28557;-75
2024/03/18 07:59:32;;;;;;;8.00;4.00;;;10.10;99.90;;;;;;493897;241;27818;-74
2024/03/18 08:01:34;;;;;;;7.00;3.80;;;10.10;99.90;;;;;;493973;241;28017;-73
2024/03/18 08:03:34;;;;;;;5.43;3.10;;;10.10;99.90;;;;;;493912;241;28026;-73
2024/03/18 08:05:36;;;;;;;5.27;4.37;;;10.10;99.90;;;;;;493996;241;27974;-73
2024/03/18 08:07:37;;;;;;;9.53;3.70;;;10.20;99.90;;;;;;493976;241;27990;-74
2024/03/18 08:09:38;;;;;;;5.10;4.37;;;10.20;99.90;;;;;;493898;241;28083;-74
2024/03/18 08:11:39;;;;;;;7.13;4.53;;;10.30;99.90;;;;;;493927;241;27993;-74
2024/03/18 08:13:41;;;;;;;8.97;4.77;;;10.30;99.90;;;;;;493924;241;28046;-72
2024/03/18 08:15:42;;;;;;;9.63;4.73;;;10.40;99.90;;;;;;493995;241;28313;-74
2024/03/18 08:17:43;;;;;;;8.73;5.30;;;10.40;99.90;;;;;;493970;237;28446;-74
2024/03/18 08:19:44;;;;;;;8.17;5.17;;;10.40;99.90;;;;;;493916;241;28397;-73
2024/03/18 08:21:46;;;;;;;10.20;6.07;;;10.40;99.90;;;;;;493923;241;28564;-74
2024/03/18 08:23:49;;;;;;;10.20;6.10;;;10.40;99.90;;;;;;493967;237;28013;-74
2024/03/18 08:25:48;;;;;;;12.13;5.80;;;10.40;99.90;;;;;;493772;241;28081;-73
2024/03/18 08:27:50;;;;;;;7.33;4.70;;;10.40;99.90;;;;;;493903;241;28263;-74
2024/03/18 08:29:51;;;;;;;9.67;6.10;;;10.40;99.90;;;;;;493824;241;28114;-73
2024/03/18 08:31:52;;;;;;;9.83;6.23;;;10.40;99.90;;;;;;493900;241;27977;-73
2024/03/18 08:33:56;;;;;;;11.70;6.30;;;10.40;99.90;;;;;;493918;241;28187;-74
2024/03/18 08:35:58;;;;;;;9.23;6.10;;;10.50;99.90;;;;;;493930;241;28023;-73
2024/03/18 08:37:59;;;;;;;9.53;6.60;;;10.50;99.90;;;;;;493877;241;28489;-73
2024/03/18 08:40:00;;;;;;;10.37;5.70;;;10.60;99.90;;;;;;493926;241;28257;-72
2024/03/18 08:42:01;;;;;;;9.57;6.80;;;10.60;99.90;;;;;;493945;239;28627;-74
2024/03/18 08:44:03;;;;;;;8.00;5.40;;;10.60;99.90;;;;;;493896;241;28061;-72
2024/03/18 08:46:06;;;;;;;7.83;5.97;;;10.60;99.90;;;;;;493897;241;27902;-74
2024/03/18 08:48:05;;;;;;;8.90;6.30;;;10.60;99.90;;;;;;493727;241;27974;-73
2024/03/18 08:50:06;;;;;;;10.40;6.77;;;10.60;99.90;;;;;;493969;241;28029;-74
2024/03/18 08:52:08;;;;;;;10.23;6.23;;;10.50;99.90;;;;;;493945;241;27909;-74
2024/03/18 08:54:09;;;;;;;10.23;7.07;;;10.50;99.90;;;;;;493913;241;27994;-74
2024/03/18 08:56:11;;;;;;;9.40;6.57;;;10.50;99.90;;;;;;493897;241;28132;-74
2024/03/18 08:58:11;;;;;;;10.70;5.83;;;10.60;99.90;;;;;;493907;241;28043;-74
2024/03/18 09:00:15;;;;;;;10.10;6.87;;;10.60;99.90;;;;;;493976;241;28395;-73
2024/03/18 09:02:14;;;;;;;7.17;5.90;;;10.60;99.90;;;;;;493759;241;28548;-73
2024/03/18 09:04:15;;;;;;;10.20;7.00;;;10.60;99.90;;;;;;493930;237;28109;-73
2024/03/18 09:06:17;;;;;;;10.07;7.07;;;10.70;99.90;;;;;;493961;241;28108;-73
2024/03/18 09:08:18;;;;;;;13.50;6.40;;;10.70;99.90;;;;;;493895;241;28308;-74
2024/03/18 09:10:19;;;;;;;8.80;5.60;;;10.70;99.90;;;;;;493932;241;28099;-73
2024/03/18 09:12:20;;;;;;;8.47;5.97;;;10.70;99.90;;;;;;493940;241;28230;-74
2024/03/18 09:14:22;;;;;;;6.07;5.13;;;10.70;99.90;;;;;;493907;241;28051;-73
2024/03/18 09:16:23;;;;;;;9.93;5.60;;;10.80;99.90;;;;;;493975;237;27930;-73
2024/03/18 09:18:24;;;;;;;7.23;4.50;;;11.00;99.90;;;;;;493929;241;27982;-74
2024/03/18 09:20:25;;;;;;;7.00;5.30;;;11.00;99.90;;;;;;493946;241;28454;-73
2024/03/18 09:22:26;;;;;;;8.30;4.90;;;11.00;99.90;;;;;;493917;241;28780;-73
2024/03/18 09:24:28;;;;;;;8.93;4.80;;;10.90;99.90;;;;;;493979;241;28852;-76
2024/03/18 09:26:29;;;;;;;7.20;5.03;;;11.00;99.90;;;;;;493966;241;29602;-73
2024/03/18 09:28:30;;;;;;;10.70;6.30;;;11.00;99.90;;;;;;493907;241;28330;-74
2024/03/18 09:30:32;;;;;;;10.63;6.13;;;11.00;99.90;;;;;;493926;241;28195;-73
2024/03/18 09:32:33;;;;;;;7.87;5.13;;;11.10;99.90;;;;;;493922;238;28281;-74
2024/03/18 09:34:35;;;;;;;9.10;5.40;;;;;;;;;;493959;241;28003;-74
2024/03/18 09:36:36;;;;;;;10.40;4.87;;;11.50;99.90;;;;;;493965;241;27706;-74
2024/03/18 09:38:38;;;;;;;6.47;4.90;;;11.70;99.90;;;;;;493891;241;28164;-73
2024/03/18 09:40:39;;;;;;;8.43;4.73;;;11.80;99.90;;;;;;493976;241;28104;-74
2024/03/18 09:42:40;;;;;;;7.43;5.23;;;12.00;99.90;;;;;;493951;241;28317;-74
2024/03/18 09:44:41;;;;;;;9.90;5.10;;;12.10;99.90;;;;;;493926;241;28590;-73
2024/03/18 09:46:43;;;;;;;7.50;5.13;;;12.20;99.90;;;;;;493947;241;28140;-74
2024/03/18 09:48:44;;;;;;;6.10;4.40;;;12.10;99.90;;;;;;493901;241;28500;-73
2024/03/18 09:50:46;;;;;;;9.23;5.13;;;12.20;99.90;;;;;;493978;241;28309;-73
2024/03/18 09:52:46;;;;;;;5.27;4.53;;;12.30;99.90;;;;;;493867;241;28567;-73
2024/03/18 09:54:49;;;;;;;7.70;4.43;;;12.50;99.90;;;;;;493940;241;28516;-72
2024/03/18 09:56:49;;;;;;;8.63;4.80;;;12.70;99.90;;;;;;493890;241;28918;-74
2024/03/18 09:58:50;;;;;;;13.90;6.37;;;12.90;99.90;;;;;;493977;241;28644;-76
2024/03/18 10:00:51;;;;;;;12.73;4.70;;;13.00;99.90;;;;;;493995;241;28198;-73
2024/03/18 10:02:53;;;;;;;8.03;4.27;;;13.30;99.90;;;;;;493967;241;28449;-74
2024/03/18 10:04:59;;;;;;;8.93;5.40;;;13.40;99.90;;;;;;493926;241;28388;-73
2024/03/18 10:06:56;;;;;;;7.60;5.47;;;13.30;99.90;;;;;;493609;241;28443;-73
2024/03/18 10:08:56;;;;;;;8.03;4.80;;;13.30;99.90;;;;;;493976;241;28846;-73
2024/03/18 10:10:58;;;;;;;12.73;5.40;;;13.20;99.90;;;;;;493987;237;28184;-73
2024/03/18 10:12:59;;;;;;;8.67;4.43;;;13.10;99.90;;;;;;493972;241;28304;-73
2024/03/18 10:15:00;;;;;;;5.63;4.37;;;13.00;99.90;;;;;;493950;241;29968;-73
2024/03/18 10:17:01;;;;;;;6.07;3.77;;;13.10;99.90;;;;;;493987;241;28662;-74
2024/03/18 10:19:03;;;;;;;5.70;4.57;;;13.00;99.90;;;;;;493888;241;28999;-75
2024/03/18 10:21:04;;;;;;;5.60;4.00;;;13.00;99.90;;;;;;494009;241;28277;-74
2024/03/18 10:23:05;;;;;;;8.20;3.80;;;13.00;99.90;;;;;;493978;237;28630;-73
2024/03/18 10:25:06;;;;;;;7.93;5.00;;;13.00;99.90;;;;;;493960;241;28379;-73
2024/03/18 10:27:08;;;;;;;8.43;4.50;;;12.90;99.90;;;;;;494030;241;28278;-73
2024/03/18 10:29:09;;;;;;;6.90;4.87;;;12.60;99.90;;;;;;493959;241;28226;-74
2024/03/18 10:31:10;;;;;;;5.20;4.47;;;12.70;99.90;;;;;;493937;241;28802;-73
2024/03/18 10:33:11;;;;;;;5.53;4.47;;;12.70;99.90;;;;;;493930;241;28417;-73
2024/03/18 10:35:13;;;;;;;10.83;4.57;;;12.70;99.90;;;;;;493974;241;28614;-75
2024/03/18 10:37:14;;;;;;;7.10;4.57;;;12.70;99.90;;;;;;493966;241;28641;-72